Time;durP1;ratioP1;P1;durP2;ratioP2;P2;SDS_P1;SDS_P2;PMS_P1;PMS_P2;Temp;Humidity;BMP_temperature;BMP_pressure;BME280_temperature;BME280_humidity;BME280_pressure;Samples;Min_cycle;Max_cycle;Signal;HPM_P1;HPM_P2
2021/01/23 00:00:08;;;;;;;;;;;29.30;33.10;;;;;;5093844;28;20000;-70
2021/01/23 00:02:34;;;;;;;;;;;29.30;33.40;;;;;;5076735;28;19912;-68
2021/01/23 00:04:59;;;;;;;;;;;29.30;32.80;;;;;;5077617;28;19916;-68
2021/01/23 00:07:24;;;;;;;;;;;29.30;33.10;;;;;;5093974;28;19954;-69
2021/01/23 00:09:50;;;;;;;;;;;29.30;32.50;;;;;;5094020;28;19954;-72
2021/01/23 00:12:15;;;;;;;;;;;29.40;32.50;;;;;;5092806;28;20015;-63
2021/01/23 00:14:41;;;;;;;;;;;29.40;32.50;;;;;;5078084;28;19916;-67
2021/01/23 00:17:06;;;;;;;;;;;29.30;32.40;;;;;;5093693;28;19908;-67
2021/01/23 00:19:32;;;;;;;;;;;29.40;33.00;;;;;;5093601;28;19908;-65
2021/01/23 00:21:57;;;;;;;;;;;29.30;33.10;;;;;;5093093;28;20041;-63
2021/01/23 00:24:23;;;;;;;;;;;29.30;32.90;;;;;;5093303;28;20396;-66
2021/01/23 00:26:48;;;;;;;;;;;29.30;32.80;;;;;;5084852;28;19919;-65
2021/01/23 00:29:14;;;;;;;;;;;29.30;33.20;;;;;;5093379;28;19946;-67
2021/01/23 00:31:39;;;;;;;;;;;29.30;33.30;;;;;;5091382;28;20015;-66
2021/01/23 00:34:05;;;;;;;;;;;29.40;32.50;;;;;;5077430;28;19916;-69
2021/01/23 00:36:31;;;;;;;;;;;29.40;33.20;;;;;;5073005;28;19913;-64
2021/01/23 00:38:56;;;;;;;;;;;29.40;32.40;;;;;;5083450;28;19912;-67
2021/01/23 00:41:22;;;;;;;;;;;29.40;32.10;;;;;;5093206;28;19908;-69
2021/01/23 00:43:47;;;;;;;;;;;29.40;33.10;;;;;;5079627;28;19919;-65
2021/01/23 00:46:13;;;;;;;;;;;29.40;32.90;;;;;;5074274;28;19913;-65
2021/01/23 00:48:38;;;;;;;;;;;29.40;33.00;;;;;;5073023;28;19908;-69
2021/01/23 00:51:04;;;;;;;;;;;29.40;33.30;;;;;;5076021;28;20350;-61
2021/01/23 00:53:29;;;;;;;;;;;29.40;32.60;;;;;;5092942;28;19919;-65
2021/01/23 00:55:55;;;;;;;;;;;29.40;33.00;;;;;;5088668;28;19912;-58
2021/01/23 00:58:20;;;;;;;;;;;29.40;33.00;;;;;;5073084;28;20385;-55
2021/01/23 01:00:45;;;;;;;;;;;29.40;33.00;;;;;;5072763;28;20049;-57
2021/01/23 01:03:11;;;;;;;;;;;29.30;33.50;;;;;;5072722;28;19912;-65
2021/01/23 01:05:36;;;;;;;;;;;29.30;33.00;;;;;;5075514;28;20374;-65
2021/01/23 01:08:02;;;;;;;;;;;29.30;32.60;;;;;;5092027;28;19912;-71
2021/01/23 01:10:27;;;;;;;;;;;29.30;32.50;;;;;;5092926;28;20431;-71
2021/01/23 01:12:53;;;;;;;;;;;29.30;33.00;;;;;;5086437;28;20019;-73
2021/01/23 01:15:18;;;;;;;;;;;29.30;32.30;;;;;;5072963;28;19908;-64
2021/01/23 01:17:44;;;;;;;;;;;29.30;32.30;;;;;;5078706;28;19913;-66
2021/01/23 01:20:09;;;;;;;;;;;29.30;32.00;;;;;;5072461;28;19908;-65
2021/01/23 01:22:35;;;;;;;;;;;29.30;31.90;;;;;;5072834;28;19959;-67
2021/01/23 01:25:01;;;;;;;;;;;29.30;32.30;;;;;;5072580;28;19989;-68
2021/01/23 01:27:26;;;;;;;;;;;29.30;32.00;;;;;;5072760;28;19916;-66
2021/01/23 01:29:51;;;;;;;;;;;29.30;32.20;;;;;;5072583;28;19927;-69
2021/01/23 01:32:17;;;;;;;;;;;29.40;32.20;;;;;;5080850;28;19965;-65
2021/01/23 01:34:43;;;;;;;;;;;29.40;32.20;;;;;;5092963;28;19908;-68
2021/01/23 01:37:08;;;;;;;;;;;29.40;32.10;;;;;;5076832;28;20327;-69
2021/01/23 01:39:33;;;;;;;;;;;29.40;32.00;;;;;;5072655;28;19909;-71
2021/01/23 01:42:02;;;;;;;;;;;29.40;32.20;;;;;;5083867;28;20282;-71
2021/01/23 01:44:28;;;;;;;;;;;29.40;32.20;;;;;;5075164;28;19912;-63
2021/01/23 01:46:54;;;;;;;;;;;29.40;32.00;;;;;;5086920;28;20003;-66
2021/01/23 01:49:19;;;;;;;;;;;29.30;32.20;;;;;;5090809;28;20373;-65
2021/01/23 01:51:44;;;;;;;;;;;29.30;32.30;;;;;;5064138;28;20020;-63
2021/01/23 01:54:10;;;;;;;;;;;29.30;33.20;;;;;;5072521;28;19908;-69
2021/01/23 01:56:35;;;;;;;;;;;29.30;32.10;;;;;;5056727;28;20006;-66
2021/01/23 01:59:01;;;;;;;;;;;29.30;32.20;;;;;;5075027;28;19924;-60
2021/01/23 02:01:27;;;;;;;;;;;29.30;32.70;;;;;;5093280;28;19912;-60
2021/01/23 02:04:01;;;;;;;;;;;29.30;32.90;;;;;;5074982;28;19930;-60
2021/01/23 02:06:44;;;;;;;;;;;29.30;32.70;;;;;;5058209;28;19912;-60
2021/01/23 02:09:28;;;;;;;;;;;29.20;33.50;;;;;;5057867;28;19909;-60
2021/01/23 02:12:03;;;;;;;;;;;29.20;33.40;;;;;;5088056;28;19920;-61
2021/01/23 02:14:28;;;;;;;;;;;29.20;33.50;;;;;;5084917;28;19912;-60
2021/01/23 02:16:54;;;;;;;;;;;29.20;33.60;;;;;;5095927;28;20427;-60
2021/01/23 02:19:25;;;;;;;;;;;29.20;33.60;;;;;;5069987;28;19912;-60
2021/01/23 02:22:01;;;;;;;;;;;29.20;33.60;;;;;;5084654;28;19952;-60
2021/01/23 02:24:27;;;;;;;;;;;29.20;33.30;;;;;;5075789;28;20007;-60
2021/01/23 02:26:52;;;;;;;;;;;29.30;33.20;;;;;;5075453;28;20061;-60
2021/01/23 02:29:21;;;;;;;;;;;29.20;33.20;;;;;;5083744;28;19924;-59
2021/01/23 02:31:56;;;;;;;;;;;29.20;33.10;;;;;;5094017;28;19924;-60
2021/01/23 02:34:21;;;;;;;;;;;29.20;33.10;;;;;;5095380;28;19916;-60
2021/01/23 02:36:47;;;;;;;;;;;29.20;33.00;;;;;;5066052;28;19912;-60
2021/01/23 02:39:13;;;;;;;;;;;29.20;33.00;;;;;;5058638;28;20404;-60
2021/01/23 02:41:38;;;;;;;;;;;29.20;33.00;;;;;;5065735;28;19942;-60
2021/01/23 02:44:04;;;;;;;;;;;29.20;33.00;;;;;;5093042;28;20361;-59
2021/01/23 02:46:29;;;;;;;;;;;29.20;32.90;;;;;;5095348;28;20006;-60
2021/01/23 02:48:55;;;;;;;;;;;29.20;32.90;;;;;;5083263;28;20328;-60
2021/01/23 02:51:29;;;;;;;;;;;29.20;32.90;;;;;;5063392;28;19923;-60
2021/01/23 02:53:57;;;;;;;;;;;29.20;33.00;;;;;;5095228;28;19915;-60
2021/01/23 02:56:24;;;;;;;;;;;29.20;32.90;;;;;;5066336;28;19919;-59
2021/01/23 02:58:50;;;;;;;;;;;29.10;32.80;;;;;;5077249;28;19939;-60
2021/01/23 03:01:16;;;;;;;;;;;29.10;32.80;;;;;;5077194;28;20289;-59
2021/01/23 03:03:41;;;;;;;;;;;29.10;32.80;;;;;;5076927;28;19912;-60
2021/01/23 03:06:07;;;;;;;;;;;29.10;32.80;;;;;;5088658;28;19917;-60
2021/01/23 03:08:32;;;;;;;;;;;29.10;32.70;;;;;;5085778;28;19912;-60
2021/01/23 03:10:58;;;;;;;;;;;29.10;32.70;;;;;;5090219;28;20340;-60
2021/01/23 03:13:23;;;;;;;;;;;29.10;32.60;;;;;;5083251;28;20400;-60
2021/01/23 03:15:49;;;;;;;;;;;29.10;32.60;;;;;;5085784;28;19912;-60
2021/01/23 03:18:14;;;;;;;;;;;29.10;32.60;;;;;;5074630;28;19912;-60
2021/01/23 03:20:40;;;;;;;;;;;29.10;32.60;;;;;;5059806;28;19912;-60
2021/01/23 03:23:05;;;;;;;;;;;29.10;32.60;;;;;;5074589;28;19931;-60
2021/01/23 03:25:31;;;;;;;;;;;29.10;33.20;;;;;;5074880;28;19970;-60
2021/01/23 03:27:56;;;;;;;;;;;29.10;32.60;;;;;;5094692;28;19915;-59
2021/01/23 03:30:22;;;;;;;;;;;29.10;32.50;;;;;;5092637;28;20002;-60
2021/01/23 03:32:48;;;;;;;;;;;29.10;32.50;;;;;;5094496;28;19927;-60
2021/01/23 03:35:14;;;;;;;;;;;29.10;32.50;;;;;;5088401;28;19930;-60
2021/01/23 03:37:40;;;;;;;;;;;29.10;32.50;;;;;;5092616;28;19916;-60
2021/01/23 03:40:05;;;;;;;;;;;29.10;32.50;;;;;;5094144;28;20034;-60
2021/01/23 03:42:31;;;;;;;;;;;29.10;32.50;;;;;;5076773;28;19912;-59
2021/01/23 03:44:56;;;;;;;;;;;29.10;32.50;;;;;;5092461;28;19916;-60
2021/01/23 03:47:22;;;;;;;;;;;29.00;32.40;;;;;;5078711;28;19909;-59
2021/01/23 03:49:47;;;;;;;;;;;29.00;32.40;;;;;;5077563;28;19921;-59
2021/01/23 03:52:13;;;;;;;;;;;29.00;32.40;;;;;;5075327;28;19922;-60
2021/01/23 03:54:41;;;;;;;;;;;29.00;32.40;;;;;;5073654;28;20354;-60
2021/01/23 03:57:07;;;;;;;;;;;29.00;32.40;;;;;;5073609;28;20422;-60
2021/01/23 03:59:33;;;;;;;;;;;29.00;32.40;;;;;;5073830;28;19991;-60
2021/01/23 04:01:58;;;;;;;;;;;29.00;32.40;;;;;;5076701;28;20239;-60
2021/01/23 04:04:23;;;;;;;;;;;29.00;32.40;;;;;;5073445;28;19916;-60
2021/01/23 04:06:49;;;;;;;;;;;29.00;32.30;;;;;;5085206;28;19912;-60
2021/01/23 04:09:14;;;;;;;;;;;29.00;32.30;;;;;;5093915;28;20011;-60
2021/01/23 04:11:40;;;;;;;;;;;29.00;32.30;;;;;;5090082;28;19950;-60
2021/01/23 04:14:05;;;;;;;;;;;29.00;32.30;;;;;;5084736;28;19937;-60
2021/01/23 04:16:31;;;;;;;;;;;29.00;32.30;;;;;;5076606;28;19927;-60
2021/01/23 04:18:56;;;;;;;;;;;29.00;32.30;;;;;;5073391;28;19962;-60
2021/01/23 04:21:22;;;;;;;;;;;29.00;32.20;;;;;;5079490;28;20384;-60
2021/01/23 04:23:47;;;;;;;;;;;29.00;32.20;;;;;;5090713;28;20086;-60
2021/01/23 04:26:13;;;;;;;;;;;29.00;32.20;;;;;;5073561;28;19908;-60
2021/01/23 04:28:38;;;;;;;;;;;29.00;32.20;;;;;;5073196;28;19912;-59
2021/01/23 04:31:03;;;;;;;;;;;29.00;32.10;;;;;;5074400;28;19919;-60
2021/01/23 04:33:29;;;;;;;;;;;29.00;32.10;;;;;;5072988;28;19919;-60
2021/01/23 04:35:54;;;;;;;;;;;29.00;32.10;;;;;;5076994;28;19916;-60
2021/01/23 04:38:20;;;;;;;;;;;29.00;32.00;;;;;;5093543;28;19912;-59
2021/01/23 04:40:45;;;;;;;;;;;29.00;32.00;;;;;;5088615;28;19920;-60
2021/01/23 04:43:11;;;;;;;;;;;29.00;32.60;;;;;;5078073;28;19915;-59
2021/01/23 04:45:36;;;;;;;;;;;29.00;32.00;;;;;;5074281;28;19912;-60
2021/01/23 04:48:02;;;;;;;;;;;29.00;32.00;;;;;;5074100;28;20002;-60
2021/01/23 04:50:27;;;;;;;;;;;29.00;32.00;;;;;;5092698;28;19998;-60
2021/01/23 04:52:53;;;;;;;;;;;29.00;32.00;;;;;;5087154;28;19925;-59
2021/01/23 04:55:18;;;;;;;;;;;28.90;31.90;;;;;;5073293;28;19989;-60
2021/01/23 04:57:44;;;;;;;;;;;28.90;31.90;;;;;;5092413;28;19994;-60
2021/01/23 05:00:10;;;;;;;;;;;29.00;32.00;;;;;;5092908;28;19916;-60
2021/01/23 05:02:35;;;;;;;;;;;29.00;32.00;;;;;;5092155;28;19912;-59
2021/01/23 05:05:02;;;;;;;;;;;28.90;31.90;;;;;;5080549;28;19924;-59
2021/01/23 05:07:31;;;;;;;;;;;29.00;32.00;;;;;;5084988;28;19916;-59
2021/01/23 05:09:57;;;;;;;;;;;29.00;31.90;;;;;;5093226;28;19957;-60
2021/01/23 05:12:25;;;;;;;;;;;28.90;32.40;;;;;;5076306;28;19966;-59
2021/01/23 05:14:54;;;;;;;;;;;28.90;31.90;;;;;;5071101;28;19912;-60
2021/01/23 05:17:19;;;;;;;;;;;28.90;31.90;;;;;;5078390;28;19932;-60
2021/01/23 05:19:45;;;;;;;;;;;28.90;31.90;;;;;;5054515;28;20278;-60
2021/01/23 05:22:10;;;;;;;;;;;28.90;31.80;;;;;;5072714;28;19916;-60
2021/01/23 05:24:48;;;;;;;;;;;29.00;31.90;;;;;;5072883;28;20342;-60
2021/01/23 05:27:14;;;;;;;;;;;28.90;31.80;;;;;;5093007;28;19916;-59
2021/01/23 05:30:12;;;;;;;;;;;28.90;31.80;;;;;;5092442;28;19946;-59
2021/01/23 05:32:37;;;;;;;;;;;28.90;32.10;;;;;;5027219;28;19947;-59
2021/01/23 05:35:13;;;;;;;;;;;28.90;31.90;;;;;;5072787;28;19908;-60
2021/01/23 05:37:38;;;;;;;;;;;28.90;31.90;;;;;;5093806;28;19912;-60
2021/01/23 05:40:04;;;;;;;;;;;28.90;31.80;;;;;;5090492;28;19919;-60
2021/01/23 05:42:30;;;;;;;;;;;28.90;31.80;;;;;;5093390;28;20251;-60
2021/01/23 05:45:05;;;;;;;;;;;28.90;31.80;;;;;;5077727;28;19913;-60
2021/01/23 05:47:30;;;;;;;;;;;28.90;31.80;;;;;;5090280;28;19912;-60
2021/01/23 05:49:56;;;;;;;;;;;28.90;31.80;;;;;;5078904;28;19985;-60
2021/01/23 05:52:21;;;;;;;;;;;28.90;31.80;;;;;;5089415;28;19928;-60
2021/01/23 05:54:47;;;;;;;;;;;28.90;31.80;;;;;;5094836;28;20358;-59
2021/01/23 05:57:12;;;;;;;;;;;28.90;31.90;;;;;;5096500;28;20019;-60
2021/01/23 05:59:41;;;;;;;;;;;28.90;31.80;;;;;;5096215;28;19915;-60
2021/01/23 06:02:08;;;;;;;;;;;28.90;31.80;;;;;;5081404;28;19991;-60
2021/01/23 06:04:33;;;;;;;;;;;28.90;32.40;;;;;;5058342;28;20255;-60
2021/01/23 06:06:59;;;;;;;;;;;28.90;31.80;;;;;;5070759;28;19919;-60
2021/01/23 06:09:34;;;;;;;;;;;28.90;31.70;;;;;;5084549;28;19919;-59
2021/01/23 06:11:59;;;;;;;;;;;28.90;31.70;;;;;;5088904;28;20076;-60
2021/01/23 06:14:35;;;;;;;;;;;28.90;31.70;;;;;;5083814;28;20362;-60
2021/01/23 06:17:00;;;;;;;;;;;28.90;31.70;;;;;;5091051;28;19912;-60
2021/01/23 06:19:26;;;;;;;;;;;28.90;31.60;;;;;;5085240;28;19942;-60
2021/01/23 06:21:52;;;;;;;;;;;28.90;31.70;;;;;;5093896;28;20295;-60
2021/01/23 06:24:41;;;;;;;;;;;28.90;31.60;;;;;;5077808;28;19917;-60
2021/01/23 06:27:06;;;;;;;;;;;28.90;31.60;;;;;;5075640;28;19931;-60
2021/01/23 06:29:35;;;;;;;;;;;28.90;31.60;;;;;;5075068;28;20390;-60
2021/01/23 06:32:12;;;;;;;;;;;28.90;31.60;;;;;;5088469;28;20331;-60
2021/01/23 06:34:45;;;;;;;;;;;28.90;31.60;;;;;;5076074;28;19920;-60
2021/01/23 06:37:29;;;;;;;;;;;28.90;31.60;;;;;;5076188;28;19912;-60
2021/01/23 06:39:55;;;;;;;;;;;28.90;31.60;;;;;;5076576;28;19913;-60
2021/01/23 06:42:20;;;;;;;;;;;28.90;31.70;;;;;;5092079;28;20284;-60
2021/01/23 06:44:46;;;;;;;;;;;28.90;31.70;;;;;;5076730;28;19912;-60
2021/01/23 06:47:11;;;;;;;;;;;28.90;31.70;;;;;;5082115;28;19916;-60
2021/01/23 06:49:40;;;;;;;;;;;28.90;31.60;;;;;;5079561;28;19948;-60
2021/01/23 06:52:06;;;;;;;;;;;28.90;31.60;;;;;;5090950;28;19927;-60
2021/01/23 06:54:32;;;;;;;;;;;28.90;31.60;;;;;;5075198;28;19912;-60
2021/01/23 06:56:57;;;;;;;;;;;28.90;31.60;;;;;;5075181;28;20664;-60
2021/01/23 06:59:26;;;;;;;;;;;28.90;31.70;;;;;;5075038;28;20366;-60
2021/01/23 07:01:58;;;;;;;;;;;28.90;31.60;;;;;;5076015;28;19951;-60
2021/01/23 07:04:27;;;;;;;;;;;28.80;31.60;;;;;;5088978;28;19935;-60
2021/01/23 07:06:53;;;;;;;;;;;28.80;31.60;;;;;;5082533;28;20464;-59
2021/01/23 07:09:19;;;;;;;;;;;28.80;31.60;;;;;;5083074;28;19951;-60
2021/01/23 07:11:44;;;;;;;;;;;28.80;31.60;;;;;;5086428;28;20387;-60
2021/01/23 07:14:10;;;;;;;;;;;28.80;31.60;;;;;;5084519;28;19919;-60
2021/01/23 07:16:39;;;;;;;;;;;28.80;31.60;;;;;;5090752;28;19912;-60
2021/01/23 07:19:08;;;;;;;;;;;28.80;31.60;;;;;;5074461;28;19961;-60
2021/01/23 07:21:34;;;;;;;;;;;28.80;31.60;;;;;;5083005;28;20347;-60
2021/01/23 07:23:59;;;;;;;;;;;28.80;31.60;;;;;;5085916;28;19974;-59
2021/01/23 07:26:25;;;;;;;;;;;28.80;31.60;;;;;;5056374;28;20313;-60
2021/01/23 07:28:54;;;;;;;;;;;28.80;31.60;;;;;;5074058;28;19915;-60
2021/01/23 07:31:24;;;;;;;;;;;28.80;31.60;;;;;;5075375;28;19912;-60
2021/01/23 07:33:49;;;;;;;;;;;28.80;31.60;;;;;;5086342;28;19920;-60
2021/01/23 07:36:28;;;;;;;;;;;28.80;32.10;;;;;;5086973;28;19936;-60
2021/01/23 07:38:53;;;;;;;;;;;28.80;31.50;;;;;;5078144;28;19918;-60
2021/01/23 07:41:18;;;;;;;;;;;28.80;32.20;;;;;;5074694;28;20296;-59
2021/01/23 07:43:44;;;;;;;;;;;28.80;31.50;;;;;;5080202;28;19913;-60
2021/01/23 07:46:09;;;;;;;;;;;28.80;31.50;;;;;;5056222;28;19909;-60
2021/01/23 07:48:41;;;;;;;;;;;28.80;31.50;;;;;;5073944;28;20282;-60
2021/01/23 07:51:06;;;;;;;;;;;28.80;31.50;;;;;;5073938;28;19964;-60
2021/01/23 07:53:32;;;;;;;;;;;28.80;31.50;;;;;;5073641;28;19986;-60
2021/01/23 07:55:57;;;;;;;;;;;28.80;31.50;;;;;;5081335;28;19912;-60
2021/01/23 07:58:24;;;;;;;;;;;28.80;31.50;;;;;;5075692;28;19908;-60
2021/01/23 08:00:50;;;;;;;;;;;28.80;31.50;;;;;;5089713;28;19948;-60
2021/01/23 08:03:16;;;;;;;;;;;28.80;31.50;;;;;;5055653;28;19951;-61
2021/01/23 08:05:42;;;;;;;;;;;28.80;31.50;;;;;;5073483;28;19916;-60
2021/01/23 08:08:07;;;;;;;;;;;28.80;31.50;;;;;;5074801;28;19913;-60
2021/01/23 08:10:36;;;;;;;;;;;28.80;31.40;;;;;;5091942;28;19919;-60
2021/01/23 08:13:02;;;;;;;;;;;28.80;31.40;;;;;;5086011;28;20398;-60
2021/01/23 08:15:29;;;;;;;;;;;28.80;31.50;;;;;;5073531;28;19909;-60
2021/01/23 08:17:54;;;;;;;;;;;28.80;31.50;;;;;;5073414;28;20027;-60
2021/01/23 08:20:30;;;;;;;;;;;28.80;31.50;;;;;;5073515;28;20007;-60
2021/01/23 08:23:11;;;;;;;;;;;28.80;31.50;;;;;;5083593;28;20367;-60
2021/01/23 08:25:38;;;;;;;;;;;28.80;31.50;;;;;;5087924;28;19950;-60
2021/01/23 08:28:04;;;;;;;;;;;28.70;31.50;;;;;;5093661;28;19915;-59
2021/01/23 08:30:29;;;;;;;;;;;28.70;31.50;;;;;;5092401;28;19964;-60
2021/01/23 08:32:55;;;;;;;;;;;28.70;31.50;;;;;;5072849;28;19964;-60
2021/01/23 08:35:20;;;;;;;;;;;28.70;31.50;;;;;;5077778;28;19908;-59
2021/01/23 08:37:46;;;;;;;;;;;28.70;31.50;;;;;;5073473;28;19982;-60
2021/01/23 08:40:12;;;;;;;;;;;28.70;31.50;;;;;;5088157;28;19919;-60
2021/01/23 08:42:37;;;;;;;;;;;28.70;31.50;;;;;;5091126;28;19919;-60
2021/01/23 08:45:04;;;;;;;;;;;28.70;31.50;;;;;;5073286;28;20254;-60
2021/01/23 08:47:29;;;;;;;;;;;28.70;31.50;;;;;;5072916;28;19999;-59
2021/01/23 08:49:55;;;;;;;;;;;28.70;31.40;;;;;;5082207;28;20080;-60
2021/01/23 08:52:20;;;;;;;;;;;28.70;31.40;;;;;;5092960;28;19931;-60
2021/01/23 08:54:45;;;;;;;;;;;28.70;31.40;;;;;;5093116;28;19915;-59
2021/01/23 08:57:11;;;;;;;;;;;28.70;31.40;;;;;;5074023;28;19931;-60
2021/01/23 08:59:37;;;;;;;;;;;28.70;31.40;;;;;;5073110;28;19912;-60
2021/01/23 09:02:02;;;;;;;;;;;28.70;31.40;;;;;;5086341;28;19907;-61
2021/01/23 09:04:27;;;;;;;;;;;28.70;31.40;;;;;;5082278;28;19912;-59
2021/01/23 09:06:53;;;;;;;;;;;28.70;31.40;;;;;;5084716;28;19913;-60
2021/01/23 09:09:18;;;;;;;;;;;28.70;31.40;;;;;;5093099;28;19912;-60
2021/01/23 09:11:44;;;;;;;;;;;28.70;31.40;;;;;;5081416;28;19961;-60
2021/01/23 09:14:09;;;;;;;;;;;28.70;31.40;;;;;;5090411;28;19912;-60
2021/01/23 09:16:35;;;;;;;;;;;28.70;31.40;;;;;;5092917;28;20365;-59
2021/01/23 09:19:00;;;;;;;;;;;28.70;31.40;;;;;;5077108;28;19922;-59
2021/01/23 09:21:27;;;;;;;;;;;28.70;31.40;;;;;;5077984;28;19919;-59
2021/01/23 09:23:52;;;;;;;;;;;28.70;31.50;;;;;;5076833;28;19916;-60
2021/01/23 09:26:18;;;;;;;;;;;28.70;31.40;;;;;;5085113;28;20265;-60
2021/01/23 09:28:43;;;;;;;;;;;28.70;31.40;;;;;;5096866;28;19953;-59
2021/01/23 09:31:09;;;;;;;;;;;28.70;31.40;;;;;;5095003;28;19912;-60
2021/01/23 09:33:34;;;;;;;;;;;28.70;31.30;;;;;;5096844;28;19923;-60
2021/01/23 09:36:00;;;;;;;;;;;28.70;31.40;;;;;;5091770;28;20285;-60
2021/01/23 09:38:25;;;;;;;;;;;28.70;31.40;;;;;;5076330;28;20347;-60
2021/01/23 09:40:51;;;;;;;;;;;28.70;31.40;;;;;;5079957;28;19922;-60
2021/01/23 09:43:16;;;;;;;;;;;28.70;31.40;;;;;;5090934;28;19912;-60
2021/01/23 09:45:42;;;;;;;;;;;28.70;31.40;;;;;;5089877;28;19917;-60
2021/01/23 09:48:07;;;;;;;;;;;28.70;31.40;;;;;;5076298;28;20285;-60
2021/01/23 09:50:33;;;;;;;;;;;28.70;31.40;;;;;;5059075;28;19915;-60
2021/01/23 09:52:59;;;;;;;;;;;28.70;31.40;;;;;;5096187;28;19962;-60
2021/01/23 09:55:25;;;;;;;;;;;28.70;31.30;;;;;;5096037;28;19940;-60
2021/01/23 09:57:51;;;;;;;;;;;28.70;31.30;;;;;;5078118;28;20397;-60
2021/01/23 10:00:17;;;;;;;;;;;28.70;31.30;;;;;;5096333;28;19912;-60
2021/01/23 10:02:42;;;;;;;;;;;28.70;31.90;;;;;;5077536;28;20371;-61
2021/01/23 10:05:08;;;;;;;;;;;28.70;31.90;;;;;;5075946;28;19967;-61
2021/01/23 10:07:34;;;;;;;;;;;28.70;31.30;;;;;;5075665;28;19909;-60
2021/01/23 10:09:59;;;;;;;;;;;28.70;31.30;;;;;;5076465;28;19908;-60
2021/01/23 10:12:28;;;;;;;;;;;28.70;31.30;;;;;;5094066;28;19927;-60
2021/01/23 10:14:54;;;;;;;;;;;28.70;31.30;;;;;;5077081;28;20007;-60
2021/01/23 10:17:19;;;;;;;;;;;28.70;31.30;;;;;;5075405;28;19985;-60
2021/01/23 10:19:45;;;;;;;;;;;28.70;31.40;;;;;;5075683;28;19909;-60
2021/01/23 10:22:10;;;;;;;;;;;28.70;31.40;;;;;;5089876;28;20373;-60
2021/01/23 10:24:36;;;;;;;;;;;28.70;31.30;;;;;;5078621;28;19912;-60
2021/01/23 10:27:01;;;;;;;;;;;28.70;31.30;;;;;;5089081;28;19920;-60
2021/01/23 10:29:27;;;;;;;;;;;28.70;31.30;;;;;;5095630;28;20277;-60
2021/01/23 10:31:52;;;;;;;;;;;28.60;31.30;;;;;;5086148;28;19927;-60
2021/01/23 10:34:18;;;;;;;;;;;28.70;31.30;;;;;;5081576;28;19964;-60
2021/01/23 10:36:43;;;;;;;;;;;28.60;31.30;;;;;;5075733;28;19909;-60
2021/01/23 10:39:09;;;;;;;;;;;28.60;31.40;;;;;;5092650;28;19912;-61
2021/01/23 10:41:34;;;;;;;;;;;28.60;31.40;;;;;;5095720;28;19908;-60
2021/01/23 10:44:00;;;;;;;;;;;28.60;31.40;;;;;;5094151;28;19912;-60
2021/01/23 10:46:25;;;;;;;;;;;28.60;31.40;;;;;;5095514;28;20350;-60
2021/01/23 10:48:51;;;;;;;;;;;28.60;31.40;;;;;;5095173;28;19922;-60
2021/01/23 10:51:16;;;;;;;;;;;28.60;31.40;;;;;;5082925;28;19966;-60
2021/01/23 10:53:42;;;;;;;;;;;28.60;31.30;;;;;;5075141;28;20464;-60
2021/01/23 10:56:07;;;;;;;;;;;28.60;31.30;;;;;;5080804;28;19917;-60
2021/01/23 10:58:33;;;;;;;;;;;28.60;31.30;;;;;;5095122;28;19909;-60
2021/01/23 11:00:58;;;;;;;;;;;28.60;31.30;;;;;;5087539;28;19913;-60
2021/01/23 11:03:24;;;;;;;;;;;28.70;31.40;;;;;;5075380;28;20008;-60
2021/01/23 11:05:51;;;;;;;;;;;28.60;31.30;;;;;;5080356;28;20365;-61
2021/01/23 11:08:17;;;;;;;;;;;28.70;31.30;;;;;;5095186;28;19915;-60
2021/01/23 11:10:42;;;;;;;;;;;28.60;31.30;;;;;;5091914;28;19920;-60
2021/01/23 11:13:07;;;;;;;;;;;28.60;31.30;;;;;;5075838;28;19924;-60
2021/01/23 11:15:33;;;;;;;;;;;28.60;31.30;;;;;;5074565;28;20003;-60
2021/01/23 11:17:58;;;;;;;;;;;28.60;31.30;;;;;;5088006;28;19912;-61
2021/01/23 11:20:24;;;;;;;;;;;28.60;31.40;;;;;;5076886;28;20352;-61
2021/01/23 11:22:50;;;;;;;;;;;28.60;31.30;;;;;;5094610;28;19999;-60
2021/01/23 11:25:16;;;;;;;;;;;28.60;31.30;;;;;;5094787;28;20297;-60
2021/01/23 11:27:41;;;;;;;;;;;28.60;31.30;;;;;;5075466;28;19919;-61
2021/01/23 11:30:09;;;;;;;;;;;28.60;31.40;;;;;;5076472;28;20003;-60
2021/01/23 11:32:34;;;;;;;;;;;28.60;31.40;;;;;;5090159;28;19920;-60
2021/01/23 11:35:00;;;;;;;;;;;28.60;31.40;;;;;;5073692;28;20275;-60
2021/01/23 11:37:25;;;;;;;;;;;28.60;31.40;;;;;;5090974;28;19934;-60
2021/01/23 11:39:51;;;;;;;;;;;28.60;31.40;;;;;;5094276;28;19990;-60
2021/01/23 11:42:16;;;;;;;;;;;28.60;31.40;;;;;;5079156;28;19913;-60
2021/01/23 11:44:42;;;;;;;;;;;28.60;31.40;;;;;;5074361;28;19912;-60
2021/01/23 11:47:07;;;;;;;;;;;28.50;31.40;;;;;;5086278;28;20326;-60
2021/01/23 11:49:33;;;;;;;;;;;28.50;31.40;;;;;;5094315;28;19943;-59
2021/01/23 11:51:58;;;;;;;;;;;28.50;31.50;;;;;;5080851;28;20374;-60
2021/01/23 11:54:24;;;;;;;;;;;28.50;31.50;;;;;;5073582;28;19916;-60
2021/01/23 11:56:49;;;;;;;;;;;28.50;31.50;;;;;;5085867;28;19912;-60
2021/01/23 11:59:15;;;;;;;;;;;28.50;31.60;;;;;;5092495;28;20374;-60
2021/01/23 12:01:40;;;;;;;;;;;28.50;31.60;;;;;;5094094;28;19995;-60
2021/01/23 12:04:05;;;;;;;;;;;28.50;31.50;;;;;;5093811;28;19954;-60
2021/01/23 12:06:31;;;;;;;;;;;28.50;31.40;;;;;;5088082;28;19963;-60
2021/01/23 12:08:57;;;;;;;;;;;28.50;31.40;;;;;;5086660;28;20064;-60
2021/01/23 12:11:22;;;;;;;;;;;28.60;31.40;;;;;;5093688;28;20385;-60
2021/01/23 12:13:47;;;;;;;;;;;28.60;31.40;;;;;;5074120;28;19919;-59
2021/01/23 12:16:13;;;;;;;;;;;28.60;31.40;;;;;;5073352;28;20341;-60
2021/01/23 12:18:38;;;;;;;;;;;28.60;31.30;;;;;;5073535;28;19913;-59
2021/01/23 12:21:04;;;;;;;;;;;28.60;31.30;;;;;;5079770;28;19923;-60
2021/01/23 12:23:30;;;;;;;;;;;28.60;31.40;;;;;;5093600;28;19908;-60
2021/01/23 12:25:55;;;;;;;;;;;28.60;31.40;;;;;;5089213;28;19999;-60
2021/01/23 12:28:21;;;;;;;;;;;28.50;31.40;;;;;;5089006;28;20365;-60
2021/01/23 12:30:46;;;;;;;;;;;28.60;31.50;;;;;;5074637;28;19921;-60
2021/01/23 12:33:12;;;;;;;;;;;28.50;31.50;;;;;;5073288;28;19920;-60
2021/01/23 12:35:37;;;;;;;;;;;28.50;31.60;;;;;;5074236;28;19944;-60
2021/01/23 12:38:02;;;;;;;;;;;28.50;31.50;;;;;;5073299;28;19913;-60
2021/01/23 12:40:28;;;;;;;;;;;28.50;31.50;;;;;;5073357;28;19940;-60
2021/01/23 12:42:54;;;;;;;;;;;28.50;31.60;;;;;;5079968;28;19912;-60
2021/01/23 12:45:19;;;;;;;;;;;28.50;31.70;;;;;;5072633;28;19935;-60
2021/01/23 12:47:44;;;;;;;;;;;28.50;31.60;;;;;;5092029;28;20361;-60
2021/01/23 12:50:12;;;;;;;;;;;28.50;31.70;;;;;;5092789;28;19909;-60
2021/01/23 12:52:37;;;;;;;;;;;28.40;31.60;;;;;;5075213;28;20282;-60
2021/01/23 12:55:07;;;;;;;;;;;28.40;31.60;;;;;;5093290;28;19908;-60
2021/01/23 12:57:34;;;;;;;;;;;28.50;31.60;;;;;;5077967;28;19985;-60
2021/01/23 12:59:59;;;;;;;;;;;28.50;31.60;;;;;;5080809;28;19940;-60
2021/01/23 13:02:25;;;;;;;;;;;28.50;31.50;;;;;;5072754;28;19971;-59
2021/01/23 13:04:50;;;;;;;;;;;28.50;31.40;;;;;;5072625;28;19966;-60
2021/01/23 13:07:16;;;;;;;;;;;28.60;31.40;;;;;;5074693;28;20006;-60
2021/01/23 13:09:41;;;;;;;;;;;28.60;31.40;;;;;;5072541;28;19908;-60
2021/01/23 13:12:07;;;;;;;;;;;28.50;31.40;;;;;;5079946;28;19920;-60
2021/01/23 13:14:32;;;;;;;;;;;28.50;31.40;;;;;;5072902;28;19916;-60
2021/01/23 13:16:59;;;;;;;;;;;28.50;31.30;;;;;;5073896;28;20389;-60
2021/01/23 13:19:25;;;;;;;;;;;28.50;31.40;;;;;;5072410;28;19918;-61
2021/01/23 13:21:51;;;;;;;;;;;28.50;31.40;;;;;;5084868;28;20286;-60
2021/01/23 13:24:16;;;;;;;;;;;28.50;31.50;;;;;;5093039;28;20269;-61
2021/01/23 13:26:42;;;;;;;;;;;28.50;31.50;;;;;;5087860;28;19916;-61
2021/01/23 13:29:07;;;;;;;;;;;28.50;31.60;;;;;;5080613;28;19927;-61
2021/01/23 13:31:33;;;;;;;;;;;28.50;31.90;;;;;;5079730;28;20346;-61
2021/01/23 13:33:58;;;;;;;;;;;28.30;32.20;;;;;;5092331;28;19915;-62
2021/01/23 13:36:24;;;;;;;;;;;28.30;32.30;;;;;;5085709;28;19916;-63
2021/01/23 13:38:49;;;;;;;;;;;28.20;32.30;;;;;;5072470;28;19910;-62
2021/01/23 13:41:15;;;;;;;;;;;28.30;32.30;;;;;;5073513;28;20400;-63
2021/01/23 13:43:40;;;;;;;;;;;28.40;32.20;;;;;;5078829;28;19919;-70
2021/01/23 13:46:06;;;;;;;;;;;28.40;32.30;;;;;;5077997;28;19951;-74
2021/01/23 13:48:31;;;;;;;;;;;28.50;32.40;;;;;;5092326;28;19912;-73
2021/01/23 13:50:56;;;;;;;;;;;28.60;32.40;;;;;;5089181;28;19912;-66
2021/01/23 13:53:22;;;;;;;;;;;28.60;32.90;;;;;;5092727;28;20289;-66
2021/01/23 13:55:48;;;;;;;;;;;28.70;32.30;;;;;;5084767;28;19923;-73
2021/01/23 13:58:13;;;;;;;;;;;28.70;32.30;;;;;;5094531;28;19915;-75
2021/01/23 14:00:39;;;;;;;;;;;28.70;32.30;;;;;;5081453;28;20370;-77
2021/01/23 14:03:04;;;;;;;;;;;28.70;32.40;;;;;;5089562;28;20251;-75
2021/01/23 14:05:30;;;;;;;;;;;28.80;32.40;;;;;;5092594;28;19962;-72
2021/01/23 14:07:55;;;;;;;;;;;28.80;32.40;;;;;;5076994;28;20011;-73
2021/01/23 14:10:21;;;;;;;;;;;28.80;32.40;;;;;;5096289;28;19912;-77